Aberdeen, New Jersey
Current Conditions -  °F | °C
As of 5:15 PM on Saturday 25 Oct 2014 (Local Time) from KLDJ Reporting Station
Clear Clear  
Wind Chill: 71°   Ceiling: Unl
Heat Index: 71°   Visibility: 10mi
Dew Point: 45°   Wind: 5mph
Humidity: 40%   Direction: 270°W
Pressure: 29.68"   Gusts: 16mph
Location:  40.4118°N, 74.2499°W
Report Text: KLDJ 252115Z AUTO 27004G14KT 10SM CLR 22/07 A2968 RMK AO2 T02150074
Loading
Personal Weather Stations






























Interactive Weather Map New forecast layout! Learn more

10-Day Weather Forecast

Advertisements
Track Severe Weather on mobile